createdAt,value
2022-11-01T00:00:00.723Z,18.67
2022-11-01T00:00:23.488Z,18.58
2022-11-01T00:00:46.192Z,18.57
2022-11-01T00:01:09.050Z,18.83
2022-11-01T00:01:32.016Z,18.73
2022-11-01T00:01:54.810Z,18.75
2022-11-01T00:02:17.836Z,18.25
2022-11-01T00:02:41.982Z,19.20
2022-11-01T00:03:05.084Z,19.50
2022-11-01T00:03:27.836Z,19.65
2022-11-01T00:03:50.563Z,19.60
2022-11-01T00:04:13.279Z,19.20
2022-11-01T00:04:36.000Z,19.50
2022-11-01T00:04:58.776Z,19.15
2022-11-01T00:05:21.479Z,19.70
2022-11-01T00:05:45.914Z,18.55
2022-11-01T00:06:08.652Z,18.42
2022-11-01T00:06:31.355Z,19.58
2022-11-01T00:06:55.126Z,19.13
2022-11-01T00:07:17.843Z,19.58
2022-11-01T00:07:40.576Z,20.50
2022-11-01T00:08:03.691Z,19.17
2022-11-01T00:08:26.753Z,19.92
2022-11-01T00:08:49.463Z,19.80
2022-11-01T00:09:12.197Z,19.63
2022-11-01T00:09:35.108Z,19.58
2022-11-01T00:09:57.892Z,19.80
2022-11-01T00:10:20.603Z,21.45
2022-11-01T00:10:43.317Z,23.27
2022-11-01T00:11:15.932Z,22.50
2022-11-01T00:11:38.904Z,22.60
2022-11-01T00:12:01.607Z,25.33
2022-11-01T00:12:24.390Z,25.77
2022-11-01T00:12:47.210Z,20.88
2022-11-01T00:13:09.924Z,22.77
2022-11-01T00:13:32.629Z,22.58
2022-11-01T00:13:56.354Z,26.33
2022-11-01T00:14:19.904Z,30.42
2022-11-01T00:14:42.706Z,27.70
2022-11-01T00:15:06.634Z,22.23
2022-11-01T00:15:29.410Z,22.00
2022-11-01T00:15:52.154Z,24.35
2022-11-01T00:16:15.093Z,24.58
2022-11-01T00:16:37.992Z,28.77
2022-11-01T00:17:00.695Z,23.83
2022-11-01T00:17:23.435Z,21.63
2022-11-01T00:17:47.646Z,22.25
2022-11-01T00:18:10.378Z,22.10
2022-11-01T00:18:33.164Z,22.55
2022-11-01T00:18:55.831Z,24.88
2022-11-01T00:19:19.291Z,21.05
2022-11-01T00:19:42.004Z,21.55
2022-11-01T00:20:05.433Z,21.75
2022-11-01T00:20:30.877Z,21.88
2022-11-01T00:20:53.621Z,22.20
2022-11-01T00:21:16.704Z,21.65
2022-11-01T00:21:39.693Z,21.83
2022-11-01T00:22:02.755Z,22.15
2022-11-01T00:22:26.725Z,21.77
2022-11-01T00:22:49.769Z,22.15
2022-11-01T00:23:13.668Z,21.85
2022-11-01T00:23:37.416Z,22.58
2022-11-01T00:24:00.162Z,23.75
2022-11-01T00:24:22.840Z,22.05
2022-11-01T00:24:45.547Z,22.88
2022-11-01T00:25:09.800Z,22.95
2022-11-01T00:25:32.573Z,21.48
2022-11-01T00:25:55.352Z,21.55
2022-11-01T00:26:19.587Z,21.60
2022-11-01T00:26:42.487Z,20.80
2022-11-01T00:27:05.506Z,21.00
2022-11-01T00:27:28.278Z,21.15
2022-11-01T00:27:51.000Z,22.05
2022-11-01T00:28:13.753Z,21.42
2022-11-01T00:28:37.678Z,21.27
2022-11-01T00:29:00.318Z,22.90
2022-11-01T00:29:23.043Z,22.75
2022-11-01T00:29:45.785Z,22.13
2022-11-01T00:30:09.088Z,20.73
2022-11-01T00:30:31.857Z,21.05
2022-11-01T00:30:54.568Z,21.17
2022-11-01T00:31:18.494Z,20.10
2022-11-01T00:31:41.470Z,21.58
2022-11-01T00:32:04.597Z,22.90
2022-11-01T00:32:28.325Z,21.80
2022-11-01T00:32:52.394Z,21.88
2022-11-01T00:33:15.284Z,22.98
2022-11-01T00:33:39.381Z,20.30
2022-11-01T00:34:05.654Z,20.88
2022-11-01T00:34:28.320Z,20.05
2022-11-01T00:34:51.114Z,19.55
2022-11-01T00:35:13.902Z,20.17
2022-11-01T00:35:39.024Z,20.67
2022-11-01T00:36:01.856Z,19.65
2022-11-01T00:36:24.737Z,19.73
2022-11-01T00:36:47.532Z,19.83
2022-11-01T00:37:10.461Z,20.35
2022-11-01T00:37:33.280Z,21.80
2022-11-01T00:37:56.001Z,20.17
2022-11-01T00:38:18.880Z,19.92
2022-11-01T00:38:41.653Z,19.38
2022-11-01T00:39:04.575Z,19.63
2022-11-01T00:39:30.610Z,20.55
2022-11-01T00:39:54.264Z,20.85
2022-11-01T00:40:17.190Z,21.13
2022-11-01T00:40:39.879Z,25.25
2022-11-01T00:41:04.188Z,21.80
2022-11-01T00:41:26.939Z,21.23
2022-11-01T00:41:49.616Z,20.98
2022-11-01T00:42:12.564Z,20.73
2022-11-01T00:42:35.380Z,20.48
2022-11-01T00:42:58.083Z,19.70
2022-11-01T00:43:20.815Z,20.73
2022-11-01T00:43:43.524Z,20.88
2022-11-01T00:44:06.280Z,20.88
2022-11-01T00:44:28.943Z,20.55
2022-11-01T00:44:51.683Z,19.17
2022-11-01T00:45:14.474Z,19.50
2022-11-01T00:45:38.357Z,19.15
2022-11-01T00:46:01.178Z,19.50
2022-11-01T00:46:23.903Z,18.92
2022-11-01T00:46:46.632Z,19.23
2022-11-01T00:47:10.586Z,20.08
2022-11-01T00:47:33.296Z,20.48
2022-11-01T00:47:57.536Z,19.92
2022-11-01T00:48:20.320Z,19.83
2022-11-01T00:48:43.000Z,22.63
2022-11-01T00:49:05.789Z,22.35
2022-11-01T00:49:28.522Z,22.70
2022-11-01T00:49:51.237Z,20.92
2022-11-01T00:50:14.046Z,20.50
2022-11-01T00:50:37.764Z,20.00
2022-11-01T00:51:00.414Z,21.15
2022-11-01T00:51:23.092Z,21.45
2022-11-01T00:51:45.784Z,21.85
2022-11-01T00:52:08.675Z,20.10
2022-11-01T00:52:31.342Z,19.88
2022-11-01T00:52:54.104Z,19.85
2022-11-01T00:53:18.247Z,20.45
2022-11-01T00:53:42.210Z,20.20
2022-11-01T00:54:05.130Z,19.95
2022-11-01T00:54:27.850Z,19.50
2022-11-01T00:54:50.655Z,20.17
2022-11-01T00:55:13.369Z,20.10
2022-11-01T00:55:36.159Z,20.27
2022-11-01T00:56:01.138Z,25.42
2022-11-01T00:56:23.836Z,23.15
2022-11-01T00:56:46.574Z,22.98
2022-11-01T00:57:09.393Z,20.77
2022-11-01T00:57:32.076Z,20.83
2022-11-01T00:57:54.958Z,21.45
2022-11-01T00:58:17.845Z,20.33
2022-11-01T00:58:40.821Z,22.10
2022-11-01T00:59:03.565Z,23.17
2022-11-01T00:59:26.280Z,23.13
2022-11-01T00:59:49.004Z,21.02
2022-11-01T01:00:13.454Z,21.05
2022-11-01T01:00:36.350Z,21.35
2022-11-01T01:00:59.491Z,22.20
2022-11-01T01:01:22.687Z,21.38
2022-11-01T01:01:45.585Z,23.13
2022-11-01T01:02:08.834Z,26.92
2022-11-01T01:02:31.966Z,26.10
2022-11-01T01:02:56.248Z,24.73
2022-11-01T01:03:18.878Z,23.83
2022-11-01T01:03:41.771Z,21.60
2022-11-01T01:04:04.770Z,21.52
2022-11-01T01:04:27.645Z,22.63
2022-11-01T01:04:50.658Z,21.17
2022-11-01T01:05:13.394Z,20.30
2022-11-01T01:05:36.150Z,20.25
2022-11-01T01:05:58.927Z,21.25
2022-11-01T01:06:21.653Z,21.83
2022-11-01T01:06:44.319Z,20.88
2022-11-01T01:07:06.990Z,23.48
2022-11-01T01:07:29.734Z,25.00
2022-11-01T01:07:52.434Z,34.55
2022-11-01T01:08:15.521Z,25.98
2022-11-01T01:08:38.290Z,19.52
2022-11-01T01:09:01.050Z,19.60
2022-11-01T01:09:23.955Z,19.55
2022-11-01T01:09:46.665Z,20.50
2022-11-01T01:10:09.649Z,20.08
2022-11-01T01:10:32.444Z,19.52
2022-11-01T01:10:55.255Z,22.23
2022-11-01T01:11:17.994Z,27.88
2022-11-01T01:11:40.697Z,25.10
2022-11-01T01:12:03.478Z,25.90
2022-11-01T01:12:26.151Z,19.48
2022-11-01T01:12:50.026Z,19.30
2022-11-01T01:13:12.736Z,21.10
2022-11-01T01:13:35.534Z,23.35
2022-11-01T01:13:58.275Z,20.92
2022-11-01T01:14:20.989Z,21.20
2022-11-01T01:14:44.726Z,20.38
2022-11-01T01:15:09.280Z,19.15
2022-11-01T01:15:31.994Z,18.48
2022-11-01T01:15:54.728Z,18.77
2022-11-01T01:16:17.504Z,18.90
2022-11-01T01:17:08.130Z,17.38
2022-11-01T01:17:33.720Z,17.95
2022-11-01T01:17:58.221Z,18.15
2022-11-01T01:18:20.904Z,18.50
2022-11-01T01:18:43.635Z,20.23
2022-11-01T01:19:06.355Z,18.27
2022-11-01T01:19:29.841Z,18.02
2022-11-01T01:19:52.490Z,17.98
2022-11-01T01:20:15.435Z,17.65
2022-11-01T01:20:38.197Z,17.98
2022-11-01T01:21:01.776Z,18.83
2022-11-01T01:21:24.497Z,17.38
2022-11-01T01:21:47.316Z,18.90
2022-11-01T01:22:10.082Z,17.67
2022-11-01T01:22:32.696Z,18.23
2022-11-01T01:22:55.889Z,19.15
2022-11-01T01:23:18.630Z,20.08
2022-11-01T01:23:41.290Z,17.83
2022-11-01T01:24:04.069Z,17.02
2022-11-01T01:24:26.815Z,17.38
2022-11-01T01:24:49.992Z,17.60
2022-11-01T01:25:12.650Z,18.83
2022-11-01T01:25:35.375Z,19.00
2022-11-01T01:25:58.191Z,20.75
2022-11-01T01:26:20.915Z,19.10
2022-11-01T01:26:43.720Z,18.33
2022-11-01T01:27:06.469Z,18.67
2022-11-01T01:27:29.129Z,17.77
2022-11-01T01:27:51.813Z,18.35
2022-11-01T01:28:14.595Z,19.60
2022-11-01T01:28:41.789Z,19.15
2022-11-01T01:29:07.357Z,18.92
2022-11-01T01:29:30.275Z,18.67
2022-11-01T01:29:52.954Z,19.70
2022-11-01T01:30:15.657Z,19.80
2022-11-01T01:30:41.481Z,17.70
2022-11-01T01:31:07.432Z,19.33
2022-11-01T01:31:30.134Z,18.52
2022-11-01T01:31:52.858Z,19.00
2022-11-01T01:32:16.728Z,21.75
2022-11-01T01:32:39.459Z,19.75
2022-11-01T01:33:03.780Z,19.00
2022-11-01T01:33:26.904Z,18.55
2022-11-01T01:33:49.602Z,18.88
2022-11-01T01:34:12.322Z,17.52
2022-11-01T01:34:35.074Z,16.88
2022-11-01T01:34:58.099Z,16.15
2022-11-01T01:35:20.800Z,16.00
2022-11-01T01:35:43.501Z,16.75
2022-11-01T01:36:07.147Z,16.08
2022-11-01T01:36:29.863Z,15.90
2022-11-01T01:36:52.519Z,17.00
2022-11-01T01:37:15.610Z,17.38
2022-11-01T01:37:39.400Z,17.15
2022-11-01T01:38:02.264Z,16.73
2022-11-01T01:38:25.333Z,16.48
2022-11-01T01:38:48.018Z,16.88
2022-11-01T01:39:10.862Z,17.40
2022-11-01T01:39:33.626Z,16.45
2022-11-01T01:39:56.504Z,16.33
2022-11-01T01:40:19.352Z,16.50
2022-11-01T01:40:42.252Z,16.27
2022-11-01T01:41:23.936Z,16.80
2022-11-01T01:41:58.914Z,17.02
2022-11-01T01:42:29.128Z,15.85
2022-11-01T01:42:51.839Z,15.73
2022-11-01T01:43:14.740Z,16.17
2022-11-01T01:43:41.316Z,16.92
2022-11-01T01:44:57.250Z,16.77
2022-11-01T01:45:31.310Z,16.10
2022-11-01T01:45:54.020Z,16.70
2022-11-01T01:46:16.855Z,15.90
2022-11-01T01:46:39.584Z,15.88
2022-11-01T01:47:02.424Z,18.85
2022-11-01T01:47:27.375Z,19.42
2022-11-01T01:47:52.169Z,18.95
2022-11-01T01:48:22.039Z,18.23
2022-11-01T01:48:47.055Z,21.65
2022-11-01T01:49:09.934Z,27.92
2022-11-01T01:49:32.666Z,17.73
2022-11-01T01:49:57.509Z,18.67
2022-11-01T01:50:25.934Z,17.83
2022-11-01T01:50:51.302Z,21.05
2022-11-01T01:51:16.469Z,17.90
2022-11-01T01:51:39.520Z,16.48
2022-11-01T01:52:02.199Z,16.02
2022-11-01T01:52:24.834Z,15.98
2022-11-01T01:52:51.846Z,16.60
2022-11-01T01:53:17.485Z,16.27
2022-11-01T01:53:42.142Z,16.90
2022-11-01T01:54:04.952Z,16.30
2022-11-01T01:54:27.597Z,15.68
2022-11-01T01:54:51.135Z,16.13
2022-11-01T01:55:15.813Z,15.95
2022-11-01T01:55:43.239Z,16.20
2022-11-01T01:56:07.651Z,16.58
2022-11-01T01:56:32.117Z,16.17
2022-11-01T01:56:54.902Z,16.33
2022-11-01T01:57:17.749Z,17.20
2022-11-01T01:57:40.474Z,16.58
2022-11-01T01:58:03.317Z,16.45
2022-11-01T01:58:28.474Z,16.23
2022-11-01T01:58:52.517Z,17.02
2022-11-01T01:59:15.228Z,17.25
2022-11-01T01:59:37.893Z,17.02
2022-11-01T02:00:00.577Z,16.55
2022-11-01T02:00:23.232Z,17.25
2022-11-01T02:00:46.201Z,17.38
2022-11-01T02:01:09.058Z,17.33
2022-11-01T02:01:32.486Z,17.65
2022-11-01T02:01:55.549Z,16.98
2022-11-01T02:02:18.494Z,16.67
2022-11-01T02:02:41.607Z,17.65
2022-11-01T02:03:05.089Z,16.00
2022-11-01T02:03:31.517Z,16.55
2022-11-01T02:03:54.300Z,16.10
2022-11-01T02:04:20.131Z,15.40
2022-11-01T02:04:45.146Z,15.20
2022-11-01T02:05:11.061Z,15.43
2022-11-01T02:05:39.834Z,15.88
2022-11-01T02:06:07.152Z,16.13
2022-11-01T02:06:30.019Z,16.45
2022-11-01T02:06:52.800Z,16.38
2022-11-01T02:07:15.593Z,16.67
2022-11-01T02:07:38.322Z,16.17
2022-11-01T02:08:02.113Z,15.63
2022-11-01T02:08:28.152Z,15.45
2022-11-01T02:08:52.801Z,15.52
2022-11-01T02:09:15.482Z,15.65
2022-11-01T02:09:40.750Z,15.20
2022-11-01T02:10:05.086Z,15.32
2022-11-01T02:10:28.811Z,15.50
2022-11-01T02:10:51.506Z,15.70
2022-11-01T02:11:14.551Z,15.23
2022-11-01T02:11:37.416Z,15.88
2022-11-01T02:12:00.153Z,15.30
2022-11-01T02:12:22.968Z,16.90
2022-11-01T02:12:47.997Z,16.45
2022-11-01T02:13:14.211Z,15.80
2022-11-01T02:13:36.916Z,16.80
2022-11-01T02:13:59.686Z,16.45
2022-11-01T02:14:22.372Z,16.15
2022-11-01T02:14:45.087Z,15.63
2022-11-01T02:15:13.676Z,15.82
2022-11-01T02:15:39.827Z,16.00
2022-11-01T02:16:31.231Z,15.77
2022-11-01T02:16:57.052Z,14.93
2022-11-01T02:17:22.682Z,16.48
2022-11-01T02:18:01.265Z,16.23
2022-11-01T02:18:28.304Z,15.32
2022-11-01T02:18:57.592Z,15.15
2022-11-01T02:19:46.892Z,15.75
2022-11-01T02:20:38.092Z,15.70
2022-11-01T02:21:23.192Z,14.65
2022-11-01T02:21:50.776Z,14.90
2022-11-01T02:22:15.101Z,16.13
2022-11-01T02:23:15.611Z,15.95
2022-11-01T02:23:57.465Z,14.98
2022-11-01T02:24:46.233Z,15.45
2022-11-01T02:25:35.052Z,18.48
2022-11-01T02:26:03.831Z,19.00
2022-11-01T02:27:06.544Z,14.95
2022-11-01T02:27:31.257Z,16.52
2022-11-01T02:28:08.353Z,15.23
2022-11-01T02:28:41.686Z,15.55
2022-11-01T02:29:12.076Z,15.90
2022-11-01T02:30:04.210Z,16.63
2022-11-01T02:30:27.030Z,15.25
2022-11-01T02:30:55.994Z,15.65
2022-11-01T02:31:31.678Z,16.23
2022-11-01T02:32:01.524Z,15.88
2022-11-01T02:32:26.253Z,16.02
2022-11-01T02:32:55.212Z,15.23
2022-11-01T02:33:22.181Z,15.30
2022-11-01T02:33:45.711Z,14.50
2022-11-01T02:34:10.835Z,15.60
2022-11-01T02:34:35.367Z,15.15
2022-11-01T02:34:59.043Z,15.57
2022-11-01T02:35:24.867Z,16.13
2022-11-01T02:35:56.022Z,15.52
2022-11-01T02:36:21.571Z,15.77
2022-11-01T02:36:46.091Z,16.00
2022-11-01T02:37:11.669Z,14.70
2022-11-01T02:37:37.596Z,15.32
2022-11-01T02:38:01.578Z,14.98
2022-11-01T02:38:27.081Z,14.85
2022-11-01T02:38:51.517Z,14.50
2022-11-01T02:39:17.609Z,14.55
2022-11-01T02:39:41.433Z,13.93
2022-11-01T02:40:07.668Z,14.13
2022-11-01T02:40:35.616Z,13.73
2022-11-01T02:41:04.007Z,14.27
2022-11-01T02:41:29.432Z,14.40
2022-11-01T02:41:54.969Z,15.63
2022-11-01T02:42:19.847Z,14.13
2022-11-01T02:42:43.601Z,13.55
2022-11-01T02:43:09.192Z,14.07
2022-11-01T02:43:34.572Z,13.95
2022-11-01T02:43:59.738Z,13.38
2022-11-01T02:44:23.884Z,13.25
2022-11-01T02:44:50.335Z,12.98
2022-11-01T02:45:27.756Z,13.55
2022-11-01T02:45:51.514Z,14.27
2022-11-01T02:46:32.710Z,14.07
2022-11-01T02:47:01.860Z,13.73
2022-11-01T02:47:26.147Z,13.98
2022-11-01T02:47:48.964Z,14.40
2022-11-01T02:48:13.394Z,14.32
2022-11-01T02:48:36.160Z,13.65
2022-11-01T02:48:59.335Z,13.75
2022-11-01T02:49:22.129Z,13.88
2022-11-01T02:49:45.610Z,13.93
2022-11-01T02:50:09.747Z,14.68
2022-11-01T02:50:33.999Z,13.80
2022-11-01T02:50:57.283Z,13.95
2022-11-01T02:51:21.966Z,13.50
2022-11-01T02:51:44.659Z,12.95
2022-11-01T02:52:08.978Z,12.82
2022-11-01T02:52:33.579Z,13.63
2022-11-01T02:52:56.305Z,13.80
2022-11-01T02:53:19.120Z,14.43
2022-11-01T02:53:41.851Z,13.27
2022-11-01T02:54:06.779Z,13.68
2022-11-01T02:54:32.396Z,13.60
2022-11-01T02:54:57.710Z,14.38
2022-11-01T02:55:31.075Z,15.15
2022-11-01T02:55:54.130Z,14.15
2022-11-01T02:56:16.824Z,14.82
2022-11-01T02:56:39.546Z,14.32
2022-11-01T02:57:05.600Z,14.20
2022-11-01T02:57:31.519Z,14.88
2022-11-01T02:57:54.244Z,14.38
2022-11-01T02:58:20.140Z,14.90
2022-11-01T02:58:42.811Z,15.48
2022-11-01T02:59:05.799Z,14.32
2022-11-01T02:59:28.797Z,14.23
2022-11-01T02:59:51.527Z,15.02
2022-11-01T03:00:19.684Z,13.98
2022-11-01T03:00:43.808Z,14.00
2022-11-01T03:01:15.517Z,13.90
2022-11-01T03:01:38.569Z,14.25
2022-11-01T03:02:04.759Z,14.25
2022-11-01T03:02:39.832Z,13.32
2022-11-01T03:03:10.469Z,13.75
2022-11-01T03:03:33.857Z,14.15
2022-11-01T03:03:56.944Z,13.80
2022-11-01T03:04:19.789Z,13.38
2022-11-01T03:04:42.734Z,13.45
2022-11-01T03:05:07.037Z,14.05
2022-11-01T03:05:35.153Z,13.48
2022-11-01T03:06:04.864Z,13.90
2022-11-01T03:06:30.401Z,13.90
2022-11-01T03:06:55.364Z,13.73
2022-11-01T03:07:18.213Z,13.82
2022-11-01T03:07:41.764Z,14.30
2022-11-01T03:08:06.727Z,14.00
2022-11-01T03:08:32.363Z,13.82
2022-11-01T03:08:57.779Z,15.48
2022-11-01T03:09:20.478Z,15.13
2022-11-01T03:09:43.257Z,15.05
2022-11-01T03:10:07.059Z,14.43
2022-11-01T03:10:35.603Z,14.30
2022-11-01T03:11:05.458Z,14.60
2022-11-01T03:11:32.529Z,14.95
2022-11-01T03:11:57.966Z,15.57
2022-11-01T03:12:21.933Z,15.15
2022-11-01T03:12:51.270Z,14.48
2022-11-01T03:13:21.444Z,14.68
2022-11-01T03:13:54.103Z,14.82
2022-11-01T03:14:23.759Z,14.60
2022-11-01T03:14:50.239Z,14.45
2022-11-01T03:15:21.268Z,14.70
2022-11-01T03:15:49.299Z,14.73
2022-11-01T03:16:16.958Z,14.82
2022-11-01T03:16:43.534Z,13.98
2022-11-01T03:17:08.498Z,14.82
2022-11-01T03:17:34.118Z,14.18
2022-11-01T03:18:01.296Z,14.85
2022-11-01T03:18:27.860Z,15.35
2022-11-01T03:19:04.843Z,15.20
2022-11-01T03:19:35.487Z,14.75
2022-11-01T03:20:06.827Z,15.80
2022-11-01T03:20:47.719Z,15.60
2022-11-01T03:21:18.275Z,14.88
2022-11-01T03:21:42.496Z,14.75
2022-11-01T03:22:09.308Z,14.45
2022-11-01T03:22:35.198Z,15.43
2022-11-01T03:22:59.098Z,16.10
2022-11-01T03:23:24.155Z,15.68
2022-11-01T03:23:49.772Z,17.35
2022-11-01T03:24:19.270Z,17.95
2022-11-01T03:24:46.575Z,18.10
2022-11-01T03:25:32.004Z,20.83
2022-11-01T03:25:55.902Z,21.75
2022-11-01T03:26:22.150Z,22.92
2022-11-01T03:26:45.640Z,24.73
2022-11-01T03:27:10.926Z,25.65
2022-11-01T03:27:35.525Z,25.13
2022-11-01T03:27:59.059Z,24.58
2022-11-01T03:28:23.083Z,23.85
2022-11-01T03:28:47.088Z,25.15
2022-11-01T03:29:10.089Z,25.83
2022-11-01T03:29:32.809Z,25.17
2022-11-01T03:30:03.694Z,23.98
2022-11-01T03:30:26.437Z,23.98
2022-11-01T03:30:51.146Z,23.95
2022-11-01T03:31:18.758Z,25.33
2022-11-01T03:31:41.558Z,24.05
2022-11-01T03:32:04.395Z,25.05
2022-11-01T03:32:30.729Z,27.10
2022-11-01T03:32:56.345Z,26.58
2022-11-01T03:33:19.059Z,25.55
2022-11-01T03:33:45.007Z,25.42
2022-11-01T03:34:16.419Z,24.80
2022-11-01T03:34:39.176Z,26.00
2022-11-01T03:35:01.909Z,25.05
2022-11-01T03:35:25.872Z,24.52
2022-11-01T03:35:49.811Z,25.38
2022-11-01T03:36:14.901Z,25.63
2022-11-01T03:36:39.204Z,24.98
2022-11-01T03:37:04.655Z,25.27
2022-11-01T03:37:28.490Z,25.33
2022-11-01T03:37:54.249Z,24.92
2022-11-01T03:38:17.769Z,23.63
2022-11-01T03:38:44.241Z,23.65
2022-11-01T03:39:09.015Z,25.02
2022-11-01T03:39:33.453Z,25.48
2022-11-01T03:39:56.144Z,24.15
2022-11-01T03:40:18.823Z,25.10
2022-11-01T03:40:44.793Z,29.45
2022-11-01T03:41:12.961Z,24.80
2022-11-01T03:41:38.334Z,23.83
2022-11-01T03:42:03.545Z,23.38
2022-11-01T03:42:26.235Z,23.40
2022-11-01T03:42:50.311Z,23.17
2022-11-01T03:43:13.994Z,22.70
2022-11-01T03:43:36.815Z,23.08
2022-11-01T03:43:59.673Z,22.10
2022-11-01T03:44:22.349Z,22.17
2022-11-01T03:44:47.094Z,21.45
2022-11-01T03:45:11.624Z,21.75
2022-11-01T03:45:35.573Z,21.83
2022-11-01T03:45:58.370Z,20.13
2022-11-01T03:46:21.055Z,19.95
2022-11-01T03:46:43.834Z,21.02
2022-11-01T03:47:06.684Z,20.73
2022-11-01T03:47:29.934Z,20.45
2022-11-01T03:47:54.041Z,18.80
2022-11-01T03:48:16.764Z,18.38
2022-11-01T03:48:40.278Z,17.85
2022-11-01T03:49:02.936Z,16.63
2022-11-01T03:49:25.613Z,16.98
2022-11-01T03:49:48.328Z,16.90
2022-11-01T03:50:15.034Z,16.55
2022-11-01T03:50:40.177Z,18.42
2022-11-01T03:51:02.892Z,23.23
2022-11-01T03:51:25.614Z,23.85
2022-11-01T03:51:48.716Z,23.02
2022-11-01T03:52:11.399Z,22.77
2022-11-01T03:52:34.255Z,22.65
2022-11-01T03:52:57.045Z,23.05
2022-11-01T03:53:19.865Z,23.67
2022-11-01T03:53:43.588Z,24.75
2022-11-01T03:54:11.004Z,23.60
2022-11-01T03:54:34.079Z,24.85
2022-11-01T03:54:56.878Z,24.20
2022-11-01T03:55:19.958Z,23.08
2022-11-01T03:55:43.839Z,23.58
2022-11-01T03:56:07.053Z,22.65
2022-11-01T03:56:29.733Z,23.00
2022-11-01T03:56:52.554Z,22.98
2022-11-01T03:57:16.030Z,22.77
2022-11-01T03:57:38.729Z,22.88
2022-11-01T03:58:01.828Z,23.33
2022-11-01T03:58:41.481Z,23.60
2022-11-01T03:59:04.333Z,23.23
2022-11-01T03:59:27.043Z,23.30
2022-11-01T03:59:49.743Z,23.48
2022-11-01T04:00:15.547Z,23.52
2022-11-01T04:00:39.129Z,23.23
2022-11-01T04:01:01.889Z,24.30
2022-11-01T04:01:24.748Z,23.73
2022-11-01T04:01:47.936Z,26.08
2022-11-01T04:02:38.676Z,23.40
2022-11-01T04:03:03.181Z,23.00
2022-11-01T04:03:26.274Z,23.40
2022-11-01T04:03:51.587Z,28.85
2022-11-01T04:04:14.298Z,22.33
2022-11-01T04:04:39.853Z,22.17
2022-11-01T04:05:02.569Z,21.98
2022-11-01T04:05:26.741Z,21.58
2022-11-01T04:05:49.512Z,20.95
2022-11-01T04:06:12.182Z,22.20
2022-11-01T04:06:35.086Z,21.80
2022-11-01T04:06:57.862Z,21.48
2022-11-01T04:07:20.642Z,21.27
2022-11-01T04:07:43.580Z,21.63
2022-11-01T04:08:06.884Z,20.63
2022-11-01T04:08:29.649Z,20.00
2022-11-01T04:08:52.414Z,19.92
2022-11-01T04:09:15.090Z,16.95
2022-11-01T04:09:37.772Z,15.57
2022-11-01T04:10:00.470Z,14.90
2022-11-01T04:10:24.005Z,15.35
2022-11-01T04:10:46.665Z,14.98
2022-11-01T04:11:09.336Z,14.50
2022-11-01T04:11:32.197Z,14.82
2022-11-01T04:11:54.883Z,13.93
2022-11-01T04:12:17.625Z,14.40
2022-11-01T04:12:44.793Z,14.57
2022-11-01T04:13:07.503Z,14.90
2022-11-01T04:13:30.183Z,14.00
2022-11-01T04:13:52.853Z,14.68
2022-11-01T04:14:34.087Z,14.70
2022-11-01T04:15:15.576Z,14.93
2022-11-01T04:15:56.891Z,13.40
2022-11-01T04:16:38.531Z,13.50
2022-11-01T04:17:20.151Z,13.32
2022-11-01T04:18:01.121Z,13.98
2022-11-01T04:18:44.271Z,14.07
2022-11-01T04:19:26.271Z,14.43
2022-11-01T04:20:07.775Z,13.93
2022-11-01T04:20:33.541Z,13.57
2022-11-01T04:20:56.261Z,14.68
2022-11-01T04:21:20.803Z,14.75
2022-11-01T04:21:43.509Z,14.45
2022-11-01T04:22:06.241Z,13.68
2022-11-01T04:22:29.014Z,13.55
2022-11-01T04:22:51.731Z,13.68
2022-11-01T04:23:14.354Z,14.15
2022-11-01T04:23:37.195Z,13.93
2022-11-01T04:23:59.970Z,14.75
2022-11-01T04:24:22.619Z,14.63
2022-11-01T04:24:45.453Z,14.35
2022-11-01T04:25:08.557Z,14.57
2022-11-01T04:25:31.436Z,14.52
2022-11-01T04:25:54.115Z,14.25
2022-11-01T04:26:19.326Z,15.43
2022-11-01T04:26:41.997Z,14.05
2022-11-01T04:27:04.791Z,13.45
2022-11-01T04:27:27.532Z,13.90
2022-11-01T04:27:50.238Z,14.80
2022-11-01T04:28:12.951Z,14.60
2022-11-01T04:28:35.918Z,14.13
2022-11-01T04:28:58.888Z,14.25
2022-11-01T04:29:21.574Z,13.82
2022-11-01T04:29:47.200Z,13.82
2022-11-01T04:30:11.184Z,15.52
2022-11-01T04:30:33.898Z,15.32
2022-11-01T04:30:56.621Z,14.68
2022-11-01T04:31:19.313Z,14.05
2022-11-01T04:31:42.227Z,14.90
2022-11-01T04:32:05.209Z,15.00
2022-11-01T04:32:27.988Z,14.25
2022-11-01T04:32:50.739Z,13.48
2022-11-01T04:33:13.758Z,13.05
2022-11-01T04:33:38.462Z,14.18
2022-11-01T04:34:01.603Z,13.82
2022-11-01T04:34:42.784Z,13.30
2022-11-01T04:35:35.839Z,14.45
2022-11-01T04:35:58.543Z,14.43
2022-11-01T04:36:21.325Z,14.88
2022-11-01T04:36:44.298Z,15.50
2022-11-01T04:37:07.006Z,14.73
2022-11-01T04:37:31.676Z,15.80
2022-11-01T04:37:57.952Z,14.45
2022-11-01T04:38:20.682Z,15.60
2022-11-01T04:38:43.365Z,16.25
2022-11-01T04:39:06.084Z,17.05
2022-11-01T04:39:28.816Z,17.92
2022-11-01T04:39:51.558Z,17.60
2022-11-01T04:40:15.716Z,17.60
2022-11-01T04:40:38.341Z,17.65
2022-11-01T04:41:00.984Z,18.10
2022-11-01T04:41:23.836Z,18.63
2022-11-01T04:41:47.100Z,19.55
2022-11-01T04:42:11.145Z,17.92
2022-11-01T04:42:34.792Z,17.30
2022-11-01T04:42:58.202Z,18.58
2022-11-01T04:43:22.895Z,18.05
2022-11-01T04:43:45.821Z,18.60
2022-11-01T04:44:08.567Z,17.85
2022-11-01T04:44:31.258Z,18.13
2022-11-01T04:44:53.913Z,18.55
2022-11-01T04:45:16.705Z,18.45
2022-11-01T04:45:39.422Z,18.33
2022-11-01T04:46:02.135Z,18.38
2022-11-01T04:46:24.845Z,18.83
2022-11-01T04:46:47.766Z,18.67
2022-11-01T04:47:10.507Z,19.05
2022-11-01T04:47:33.280Z,18.52
2022-11-01T04:48:03.376Z,18.25
2022-11-01T04:48:27.701Z,19.35
2022-11-01T04:48:51.851Z,19.75
2022-11-01T04:49:14.566Z,18.50
2022-11-01T04:49:37.182Z,18.20
2022-11-01T04:49:59.947Z,20.92
2022-11-01T04:50:22.657Z,18.25
2022-11-01T04:50:46.117Z,17.70
2022-11-01T04:51:08.958Z,18.83
2022-11-01T04:51:31.706Z,19.02
2022-11-01T04:51:54.547Z,17.20
2022-11-01T04:52:17.411Z,20.13
2022-11-01T04:52:40.287Z,20.88
2022-11-01T04:53:03.258Z,17.10
2022-11-01T04:53:26.225Z,16.67
2022-11-01T04:53:49.190Z,17.73
2022-11-01T04:54:12.038Z,17.38
2022-11-01T04:54:34.708Z,17.30
2022-11-01T04:54:57.480Z,16.45
2022-11-01T04:55:20.214Z,16.15
2022-11-01T04:55:42.875Z,17.30
2022-11-01T04:56:07.259Z,16.67
2022-11-01T04:56:29.979Z,17.55
2022-11-01T04:56:52.650Z,17.55
2022-11-01T04:57:24.509Z,16.92
2022-11-01T04:57:47.366Z,17.88
2022-11-01T04:58:11.114Z,16.85
2022-11-01T04:58:34.628Z,17.23
2022-11-01T04:58:57.675Z,17.05
2022-11-01T04:59:20.402Z,17.98
2022-11-01T04:59:43.159Z,17.48
2022-11-01T05:00:08.321Z,17.52
2022-11-01T05:00:33.415Z,16.42
2022-11-01T05:00:56.776Z,16.63
2022-11-01T05:01:22.218Z,17.25
2022-11-01T05:01:45.562Z,16.92
2022-11-01T05:02:08.369Z,16.55
2022-11-01T05:02:31.193Z,16.77
2022-11-01T05:02:54.920Z,16.30
2022-11-01T05:03:17.673Z,17.20
2022-11-01T05:03:40.341Z,16.73
2022-11-01T05:04:05.042Z,16.02
2022-11-01T05:04:27.725Z,15.27
2022-11-01T05:04:50.468Z,16.08
2022-11-01T05:05:13.407Z,15.95
2022-11-01T05:05:36.821Z,17.17
2022-11-01T05:05:59.570Z,17.27
2022-11-01T05:06:22.242Z,16.60
2022-11-01T05:06:44.945Z,16.38
2022-11-01T05:07:07.810Z,17.10
2022-11-01T05:07:30.550Z,16.52
2022-11-01T05:08:27.725Z,15.07
2022-11-01T05:08:50.593Z,14.50
2022-11-01T05:09:13.270Z,14.00
2022-11-01T05:09:35.979Z,13.70
2022-11-01T05:09:58.638Z,14.40
2022-11-01T05:10:21.284Z,13.85
2022-11-01T05:10:44.480Z,13.30
2022-11-01T05:11:07.299Z,13.38
2022-11-01T05:11:30.125Z,13.05
2022-11-01T05:11:52.801Z,13.15
2022-11-01T05:12:15.550Z,12.82
2022-11-01T05:12:38.300Z,12.70
2022-11-01T05:13:01.386Z,13.00
2022-11-01T05:13:25.194Z,13.73
2022-11-01T05:13:47.913Z,13.93
2022-11-01T05:14:10.719Z,15.00
2022-11-01T05:14:33.419Z,15.15
2022-11-01T05:14:56.995Z,14.40
2022-11-01T05:15:20.107Z,13.27
2022-11-01T05:15:59.262Z,13.63
2022-11-01T05:16:25.511Z,13.60
2022-11-01T05:16:48.179Z,13.35
2022-11-01T05:17:13.749Z,13.18
2022-11-01T05:17:36.569Z,12.73
2022-11-01T05:17:59.509Z,13.13
2022-11-01T05:18:22.234Z,13.02
2022-11-01T05:18:45.083Z,13.35
2022-11-01T05:19:09.400Z,12.82
2022-11-01T05:19:32.169Z,13.00
2022-11-01T05:19:54.815Z,13.05
2022-11-01T05:20:17.593Z,13.23
2022-11-01T05:20:40.278Z,13.98